Ashfordby, United Kingdom
Current Conditions -  °F | °C
As of 11:20 AM on Wednesday 26 Nov 2014 (Local Time) from EGNX Reporting Station
Haze Haze  
Wind Chill: 40°   Ceiling: 300
Heat Index: 45°   Visibility: 1.2mi
Dew Point: 45°   Wind: 9mph
Humidity: 100%   Direction: 50°NE
Pressure: 29.88"   Gusts: NA
Location:  52.75°N, 0.95°W
Report Text: EGNX 261120Z 05008KT 2000 BR BKN003 07/07 Q1012
Loading
Personal Weather Stations






























Interactive Weather Map New forecast layout! Learn more

10-Day Weather Forecast

Advertisements
Track Severe Weather on mobile